Portada
METAR-TAF:

METAR-TAF

Aeroports :

Saint-Étienne, França

latitud: 45-32N, longitud: 004-18E, altitud: 404 m

Observació

L'informe es va fer fa 32 minuts, a les 20:30 UTC
Vent 5 kt del Nord
Temperatura 19°C
Humitat 68%
Pressió 1013 hPa
Visibilitat 10 km o més
Escasses núvols a una alçada de 5200 ft
Cel cobert a una alçada de 21000 ft

METAR: LFMH 252030Z AUTO 36005KT 9999 FEW052 OVC210 19/13 Q1013

Hora: 23:02 (21:02 UTC)


TAF: manca

Observacions i pronòstics meteorològics de més de 4000 aeroports (METAR i TAF).

Les estacions disponibles són els punts grocs i vermells al mapa.

Posi el ratolí al punt desitjat per veure el nom de l'estació.

Feu clic per veure les observacions i els pronòstics meteorològics.

Per canviar el mapa: feu clic els botons verds amb una creu de color negre per apropar; al botó verd amb un guió per allunyar la imatge; o en les fletxes verdes per a mapes adjacents.


METAR-TAF: